Crossville Memorial Whitson Field Airport

About
Name: Crossville Memorial Whitson Field Airport
Identifier:  CSV/KCSV
Local Time:  22. Aug 23:27 CDT
Location
Flights per Day
0 flights
Distance: 433km (269mi)
Punctuality
-100% (0 flights per day delayed)
Delay Average: 17 minutes
Current Weather
 21 C (Humidity: 88%)
  3kt (5km/h / 3mph) from 220°
  16km (10 mi.)
 
 METAR KCSV 230353Z AUTO 22003KT 10SM CLR 21/19 A3007 RMK AO2 SLP159 T02060194

Current Flights

Departures
Number Departure To Airline
Arrivals
Number Arrival From Airline

Current Delays

Departures
N/A
Arrivals
N/A

Destinations

Top Destinations
Airport Flights
per week
Seats
per week
  Williamsport (IPT) 0 - 0 0
  Atlanta (PDK) 0 - 0 0
  Destin (DSI) 0 - 0 0
  Columbia (CUB) 0 - 0 0
  Charleston (JZI) 0 - 0 0
  Louisville (SDF) 0 - 0 0
  Nashville (BNA) 0 - 0 0
  Charlotte (CLT) 0 - 0 0
  Gary (GYY) 0 - 0 0

Airlines & Planes

Top Airlines
Airline Flights
per Day
Seats
per Day
  National Airlines 0 -
Jet Charter Inc ( Franklin Lakes Nj ) 0 -
  Novair 0 -
  Flybe Nordic 0 -
Top Plane Types
Model Flights Seats
Cirrus SR22 0.1/day - 0
Cessna C182 0.1/day - 0
Beech G36 Bonanza 0.0/day - 0